createdAt,value
2023-01-28T00:02:36.030Z,-1.17
2023-01-28T00:12:41.948Z,-1.20
2023-01-28T00:22:52.151Z,-1.22
2023-01-28T00:32:58.018Z,-1.24
2023-01-28T00:43:03.943Z,-1.24
2023-01-28T00:53:09.842Z,-1.22
2023-01-28T01:03:15.633Z,-1.21
2023-01-28T01:13:21.377Z,-1.22
2023-01-28T01:23:27.572Z,-1.22
2023-01-28T01:33:34.020Z,-1.24
2023-01-28T01:43:51.749Z,-1.24
2023-01-28T01:53:59.101Z,-1.24
2023-01-28T02:04:09.983Z,-1.24
2023-01-28T02:14:29.431Z,-1.25
2023-01-28T02:25:15.326Z,-1.30
2023-01-28T02:35:30.325Z,-1.32
2023-01-28T02:45:51.252Z,-1.33
2023-01-28T02:56:04.158Z,-1.36
2023-01-28T03:06:13.655Z,-1.38
2023-01-28T03:16:37.071Z,-1.40
2023-01-28T03:27:07.081Z,-1.41
2023-01-28T03:37:15.147Z,-1.41
2023-01-28T03:47:22.061Z,-1.39
2023-01-28T03:57:31.598Z,-1.35
2023-01-28T04:07:38.295Z,-1.34
2023-01-28T04:17:46.813Z,-1.35
2023-01-28T04:27:52.691Z,-1.35
2023-01-28T04:37:58.424Z,-1.40
2023-01-28T04:48:04.206Z,-1.43
2023-01-28T04:58:10.355Z,-1.47
2023-01-28T05:08:16.169Z,-1.50
2023-01-28T05:18:22.370Z,-1.54
2023-01-28T05:28:29.341Z,-1.50
2023-01-28T05:38:34.929Z,-1.47
2023-01-28T05:48:40.683Z,-1.45
2023-01-28T05:58:46.508Z,-1.47
2023-01-28T06:08:52.214Z,-1.53
2023-01-28T06:18:57.985Z,-1.59
2023-01-28T06:29:03.727Z,-1.58
2023-01-28T06:39:09.420Z,-1.54
2023-01-28T06:49:15.333Z,-1.53
2023-01-28T06:59:21.121Z,-1.52
2023-01-28T07:09:26.839Z,-1.55
2023-01-28T07:19:32.950Z,-1.51
2023-01-28T07:29:38.671Z,-1.52
2023-01-28T07:39:44.592Z,-1.55
2023-01-28T07:49:50.422Z,-1.54
2023-01-28T07:59:56.266Z,-1.50
2023-01-28T08:10:02.143Z,-1.47
2023-01-28T08:20:10.211Z,-1.44
2023-01-28T08:30:17.002Z,-1.41
2023-01-28T08:40:23.549Z,-1.39
2023-01-28T08:50:32.578Z,-1.31
2023-01-28T09:00:39.267Z,-1.26
2023-01-28T09:10:45.635Z,-1.20
2023-01-28T09:20:50.428Z,-1.17
2023-01-28T09:30:54.610Z,-1.20
2023-01-28T09:40:59.380Z,-1.16
2023-01-28T09:51:04.097Z,-1.05
2023-01-28T10:01:23.348Z,-0.93
2023-01-28T10:11:39.569Z,-0.87
2023-01-28T10:21:45.518Z,-0.84
2023-01-28T10:31:53.334Z,-0.81
2023-01-28T10:41:58.901Z,-0.81
2023-01-28T10:52:11.951Z,-0.78
2023-01-28T11:02:25.573Z,-0.74
2023-01-28T11:12:31.003Z,-0.70
2023-01-28T11:22:37.532Z,-0.68
2023-01-28T11:32:41.659Z,-0.66
2023-01-28T11:42:45.883Z,-0.75
2023-01-28T11:53:06.901Z,-0.77
2023-01-28T12:03:25.068Z,-0.70
2023-01-28T12:13:36.089Z,-0.68
2023-01-28T12:23:52.120Z,-0.70
2023-01-28T12:34:03.149Z,-0.67
2023-01-28T12:44:11.466Z,-0.59
2023-01-28T12:54:19.195Z,-0.61
2023-01-28T13:04:27.970Z,-0.66
2023-01-28T13:14:33.357Z,-0.73
2023-01-28T13:24:37.650Z,-0.82
2023-01-28T13:34:44.297Z,-0.84
2023-01-28T13:44:48.492Z,-0.86
2023-01-28T13:54:56.366Z,-0.95
2023-01-28T14:05:26.094Z,-1.01
2023-01-28T14:16:02.151Z,-1.10
2023-01-28T14:26:17.848Z,-1.16
2023-01-28T14:36:22.265Z,-1.20
2023-01-28T14:46:31.859Z,-1.24
2023-01-28T14:56:42.533Z,-1.23
2023-01-28T15:06:46.833Z,-1.30
2023-01-28T15:16:51.715Z,-1.37
2023-01-28T15:26:56.174Z,-1.45
2023-01-28T15:37:00.699Z,-1.50
2023-01-28T15:47:13.721Z,-1.45
2023-01-28T15:57:21.351Z,-1.45
2023-01-28T16:07:25.800Z,-1.48
2023-01-28T16:17:31.575Z,-1.47
2023-01-28T16:27:35.850Z,-1.44
2023-01-28T16:37:41.747Z,-1.46
2023-01-28T16:47:46.588Z,-1.50
2023-01-28T16:57:52.728Z,-1.57
2023-01-28T17:07:59.342Z,-1.61
2023-01-28T17:18:03.475Z,-1.64
2023-01-28T17:28:08.112Z,-1.73
2023-01-28T17:38:12.284Z,-1.82
2023-01-28T17:48:16.614Z,-1.89
2023-01-28T17:58:20.715Z,-1.93
2023-01-28T18:08:25.111Z,-1.92
2023-01-28T18:18:29.294Z,-1.90
2023-01-28T18:28:33.417Z,-1.97
2023-01-28T18:38:37.523Z,-2.06
2023-01-28T18:48:42.119Z,-2.11
2023-01-28T18:58:46.216Z,-2.17
2023-01-28T19:08:54.683Z,-2.20
2023-01-28T19:18:59.904Z,-2.24
2023-01-28T19:29:06.906Z,-2.31
2023-01-28T19:39:12.740Z,-2.33
2023-01-28T19:49:17.397Z,-2.36
2023-01-28T19:59:21.782Z,-2.36
2023-01-28T20:09:25.944Z,-2.36
2023-01-28T20:19:30.052Z,-2.41
2023-01-28T20:29:34.272Z,-2.42
2023-01-28T20:39:38.484Z,-2.40
2023-01-28T20:49:42.629Z,-2.46
2023-01-28T20:59:47.687Z,-2.52
2023-01-28T21:09:52.037Z,-2.55
2023-01-28T21:19:56.390Z,-2.68
2023-01-28T21:30:00.716Z,-2.81
2023-01-28T21:40:05.477Z,-2.96
2023-01-28T21:50:10.654Z,-3.05
2023-01-28T22:00:15.846Z,-3.17
2023-01-28T22:10:20.409Z,-3.26
2023-01-28T22:20:24.546Z,-3.25
2023-01-28T22:30:28.759Z,-3.27
2023-01-28T22:40:33.458Z,-3.30
2023-01-28T22:50:37.821Z,-3.27
2023-01-28T23:00:42.186Z,-3.27
2023-01-28T23:10:50.190Z,-3.27
2023-01-28T23:21:12.443Z,-3.25
2023-01-28T23:31:17.004Z,-3.20
2023-01-28T23:41:21.468Z,-3.18
2023-01-28T23:51:25.877Z,-3.18
